Bampton, United Kingdom
Current Conditions -  °F | °C
As of 5:50 PM on Thursday 18 Dec 2014 (Local Time) from EGVN Reporting Station
Drizzle Drizzle  
Wind Chill: 12°   Ceiling: 1500
Heat Index: 12°   Visibility: 6mi
Dew Point: 10°   Wind: 17mph
Humidity: 88%   Direction: 240°WSW
Pressure: 29.8"   Gusts: 29mph
Location:  51.73°N, 1.55°W
Report Text: EGVN 181750Z 24015G25KT 9999 -DZ SCT012 BKN015 12/10 Q1009 GRN NOSIG
Loading
Personal Weather Stations






























Interactive Weather Map New forecast layout! Learn more

10-Day Weather Forecast

Advertisements
Track Severe Weather on mobile